Time;durP1;ratioP1;P1;durP2;ratioP2;P2;SDS_P1;SDS_P2;PMS_P1;PMS_P2;Temp;Humidity;BMP_temperature;BMP_pressure;BME280_temperature;BME280_humidity;BME280_pressure;Samples;Min_cycle;Max_cycle;Signal;HPM_P1;HPM_P2
2021/04/14 00:00:44;;;;;;;14.77;9.23;;;;;;;;;;8418698;27;20331;-76
2021/04/14 00:04:46;;;;;;;14.93;9.57;;;;;;;;;;8418427;27;20467;-75
2021/04/14 00:08:51;;;;;;;14.63;10.23;;;;;;;;;;8419427;27;20489;-73
2021/04/14 00:12:57;;;;;;;14.98;9.55;;;;;;;;;;8419255;27;20362;-75
2021/04/14 00:17:02;;;;;;;15.88;9.82;;;;;;;;;;8417449;27;20364;-75
2021/04/14 00:21:08;;;;;;;14.18;9.73;;;;;;;;;;8416156;27;20485;-74
2021/04/14 00:25:36;;;;;;;16.27;9.93;;;;;;;;;;8403405;27;20355;-75
2021/04/14 00:29:55;;;;;;;16.25;9.43;;;;;;;;;;8394975;27;20343;-75
2021/04/14 00:34:00;;;;;;;16.55;10.35;;;;;;;;;;8396920;27;20373;-74
2021/04/14 00:38:06;;;;;;;18.65;11.73;;;;;;;;;;8395480;27;20465;-76
2021/04/14 00:42:10;;;;;;;23.63;12.13;;;;;;;;;;8393817;27;20461;-74
2021/04/14 00:46:15;;;;;;;19.45;12.18;;;;;;;;;;8376306;27;20381;-75
2021/04/14 00:50:26;;;;;;;13.70;9.68;;;;;;;;;;8395747;27;20345;-74
2021/04/14 00:54:31;;;;;;;16.88;10.20;;;;;;;;;;8394808;27;20365;-75
2021/04/14 00:58:35;;;;;;;15.43;9.85;;;;;;;;;;8395174;27;20054;-75
2021/04/14 01:02:40;;;;;;;15.10;8.50;;;;;;;;;;8363838;27;20039;-74
2021/04/14 01:06:44;;;;;;;17.35;8.93;;;;;;;;;;8391896;27;20354;-74
2021/04/14 01:10:50;;;;;;;14.07;7.55;;;;;;;;;;8394486;27;20461;-74
2021/04/14 01:14:54;;;;;;;14.23;8.85;;;;;;;;;;8324592;28;20083;-75
2021/04/14 01:18:58;;;;;;;14.43;8.88;;;;;;;;;;8325749;28;20044;-75
2021/04/14 01:23:05;;;;;;;12.10;7.70;;;;;;;;;;8325319;28;20040;-75
2021/04/14 01:27:09;;;;;;;14.52;7.97;;;;;;;;;;8327948;28;20406;-74
2021/04/14 01:31:19;;;;;;;10.73;7.00;;;;;;;;;;8326491;28;20372;-74
2021/04/14 01:35:27;;;;;;;11.13;6.32;;;;;;;;;;8324733;28;20048;-74
2021/04/14 01:39:32;;;;;;;9.80;6.27;;;;;;;;;;8325610;28;20492;-75
2021/04/14 01:43:36;;;;;;;6.95;4.80;;;;;;;;;;8325741;28;20390;-74
2021/04/14 01:47:41;;;;;;;6.78;4.30;;;;;;;;;;8324993;28;20370;-74
2021/04/14 01:51:49;;;;;;;6.35;3.60;;;;;;;;;;8324909;28;20490;-75
2021/04/14 01:55:53;;;;;;;6.63;3.75;;;;;;;;;;8324869;28;20363;-75
2021/04/14 01:59:56;;;;;;;4.80;3.53;;;;;;;;;;8325167;28;20496;-74
2021/04/14 02:04:03;;;;;;;6.40;3.53;;;;;;;;;;8327399;28;20064;-74
2021/04/14 02:08:09;;;;;;;4.88;2.95;;;;;;;;;;8326299;28;20481;-74
2021/04/14 02:12:13;;;;;;;4.35;2.78;;;;;;;;;;8330505;27;20523;-74
2021/04/14 02:16:22;;;;;;;3.88;3.03;;;;;;;;;;8373613;27;20329;-75
2021/04/14 02:20:27;;;;;;;3.58;2.60;;;;;;;;;;8372564;27;20362;-75
2021/04/14 02:24:31;;;;;;;2.80;2.22;;;;;;;;;;8392682;27;20098;-75
2021/04/14 02:28:35;;;;;;;3.28;2.50;;;;;;;;;;8391068;27;20066;-75
2021/04/14 02:32:39;;;;;;;3.40;2.55;;;;;;;;;;8390804;27;20475;-76
2021/04/14 02:36:44;;;;;;;4.32;2.83;;;;;;;;;;8372479;27;20503;-76
2021/04/14 02:40:49;;;;;;;4.05;2.47;;;;;;;;;;8391677;27;20427;-75
2021/04/14 02:44:53;;;;;;;3.92;2.45;;;;;;;;;;8391276;27;20469;-75
2021/04/14 02:48:58;;;;;;;4.30;2.40;;;;;;;;;;8356436;27;20039;-76
2021/04/14 02:53:22;;;;;;;3.22;2.28;;;;;;;;;;8371488;27;20625;-75
2021/04/14 02:57:25;;;;;;;3.42;2.10;;;;;;;;;;8390527;27;20338;-75
2021/04/14 03:01:29;;;;;;;3.67;2.83;;;;;;;;;;8391921;27;20368;-74
2021/04/14 03:05:36;;;;;;;4.05;2.58;;;;;;;;;;8391116;27;20357;-75
2021/04/14 03:09:41;;;;;;;4.20;2.30;;;;;;;;;;8389681;27;20362;-74
2021/04/14 03:13:45;;;;;;;3.92;2.33;;;;;;;;;;8390318;28;20399;-74
2021/04/14 03:17:51;;;;;;;3.65;2.30;;;;;;;;;;8391164;28;20373;-74
2021/04/14 03:21:55;;;;;;;3.10;2.50;;;;;;;;;;8391631;28;20458;-74
2021/04/14 03:26:00;;;;;;;3.22;2.22;;;;;;;;;;8390894;28;20477;-74
2021/04/14 03:30:21;;;;;;;4.07;2.58;;;;;;;;;;8390072;28;20337;-74
2021/04/14 03:34:25;;;;;;;4.18;3.00;;;;;;;;;;8390994;28;20464;-75
2021/04/14 03:38:30;;;;;;;4.05;2.60;;;;;;;;;;8388456;28;20404;-75
2021/04/14 03:42:35;;;;;;;4.25;3.30;;;;;;;;;;8390938;28;20104;-75
2021/04/14 03:46:39;;;;;;;3.45;2.50;;;;;;;;;;8389263;28;20035;-75
2021/04/14 03:50:44;;;;;;;4.90;3.08;;;;;;;;;;8389738;28;20379;-75
2021/04/14 03:54:49;;;;;;;3.05;2.67;;;;;;;;;;8389224;28;20427;-75
2021/04/14 03:58:55;;;;;;;4.55;3.00;;;;;;;;;;8389336;27;20495;-74
2021/04/14 04:03:01;;;;;;;4.18;2.95;;;;;;;;;;8395981;27;20043;-75
2021/04/14 04:07:05;;;;;;;4.15;2.50;;;;;;;;;;8396581;27;20055;-74
2021/04/14 04:11:10;;;;;;;7.57;4.60;;;;;;;;;;8394992;27;20477;-75
2021/04/14 04:15:14;;;;;;;9.02;6.55;;;;;;;;;;8360366;28;20472;-75
2021/04/14 04:19:20;;;;;;;5.80;4.30;;;;;;;;;;8361433;28;20455;-74
2021/04/14 04:23:26;;;;;;;3.13;2.17;;;;;;;;;;8360273;28;20051;-74
2021/04/14 04:27:30;;;;;;;4.63;2.45;;;;;;;;;;8360824;28;20366;-76
2021/04/14 04:31:35;;;;;;;3.80;2.50;;;;;;;;;;8360532;28;20389;-75
2021/04/14 04:35:39;;;;;;;6.22;3.42;;;;;;;;;;8363102;28;20108;-75
2021/04/14 04:39:43;;;;;;;6.35;2.95;;;;;;;;;;8360244;28;20479;-75
2021/04/14 04:43:47;;;;;;;4.38;2.65;;;;;;;;;;8363515;28;20354;-75
2021/04/14 05:01:09;;;;;;;71.28;26.73;;;;;;;;;;8354766;27;1405266;-73
2021/04/14 05:05:31;;;;;;;3.63;2.72;;;;;;;;;;8372018;28;20464;-74
2021/04/14 05:09:34;;;;;;;3.72;2.10;;;;;;;;;;8336386;28;20454;-74
2021/04/14 05:13:42;;;;;;;2.97;2.00;;;;;;;;;;8376007;28;20485;-74
2021/04/14 05:17:47;;;;;;;4.05;2.10;;;;;;;;;;8374711;28;20402;-74
2021/04/14 05:21:56;;;;;;;3.75;2.65;;;;;;;;;;8372775;28;20481;-74
2021/04/14 05:26:03;;;;;;;5.95;2.22;;;;;;;;;;8370368;28;20047;-75
2021/04/14 05:30:10;;;;;;;4.05;1.90;;;;;;;;;;8371410;28;20500;-74
2021/04/14 05:34:14;;;;;;;3.50;2.13;;;;;;;;;;8369462;28;20394;-74
2021/04/14 05:38:21;;;;;;;3.60;2.50;;;;;;;;;;8371722;28;21103;-74
2021/04/14 05:42:25;;;;;;;2.38;1.90;;;;;;;;;;8372375;28;20065;-75
2021/04/14 05:46:38;;;;;;;6.65;4.22;;;;;;;;;;8374361;28;20500;-75
2021/04/14 05:50:50;;;;;;;6.40;3.47;;;;;;;;;;8374790;28;20492;-74
2021/04/14 05:55:07;;;;;;;7.28;3.53;;;;;;;;;;8347061;28;20462;-75
2021/04/14 05:59:18;;;;;;;7.57;3.78;;;;;;;;;;8338454;28;20371;-74
2021/04/14 06:03:32;;;;;;;4.15;2.72;;;;;;;;;;8319125;28;20497;-75
2021/04/14 06:07:36;;;;;;;9.40;4.60;;;;;;;;;;8314858;28;20133;-75
2021/04/14 06:11:41;;;;;;;30.30;13.70;;;;;;;;;;8295362;28;20483;-76
2021/04/14 06:15:54;;;;;;;13.23;7.07;;;;;;;;;;8314465;28;20477;-74
2021/04/14 06:20:00;;;;;;;8.05;4.68;;;;;;;;;;8302617;28;20463;-75
2021/04/14 06:24:15;;;;;;;16.60;9.80;;;;;;;;;;8307883;28;20392;-75
2021/04/14 06:28:31;;;;;;;5.95;3.53;;;;;;;;;;8325457;28;20044;-75
2021/04/14 06:32:49;;;;;;;8.65;4.65;;;;;;;;;;8312625;28;20382;-74
2021/04/14 06:37:05;;;;;;;5.25;3.20;;;;;;;;;;8327060;28;20092;-74
2021/04/14 06:45:56;;;;;;;3.90;1.80;;;;;;;;;;8327871;28;20486;-74
2021/04/14 06:50:35;;;;;;;3.92;1.90;;;;;;;;;;8326700;28;20366;-73
2021/04/14 06:54:55;;;;;;;4.40;1.33;;;;;;;;;;8293744;28;20050;-74
2021/04/14 06:59:08;;;;;;;2.00;1.50;;;;;;;;;;8309598;28;20363;-73
2021/04/14 07:03:57;;;;;;;6.88;2.10;;;;;;;;;;8309570;28;20078;-74
2021/04/14 07:08:05;;;;;;;7.07;3.25;;;;;;;;;;8313225;28;20367;-74
2021/04/14 07:12:24;;;;;;;5.75;2.80;;;;;;;;;;8305863;28;20063;-73
2021/04/14 07:16:59;;;;;;;16.75;8.77;;;;;;;;;;8307980;28;20849;-73
2021/04/14 07:21:39;;;;;;;3.22;1.60;;;;;;;;;;8309991;28;20496;-73
2021/04/14 07:25:57;;;;;;;5.28;1.70;;;;;;;;;;8327326;28;20405;-73
2021/04/14 07:30:32;;;;;;;9.85;2.28;;;;;;;;;;8326149;28;20371;-73
2021/04/14 07:34:51;;;;;;;4.80;2.33;;;;;;;;;;8307913;28;20362;-72
2021/04/14 07:39:18;;;;;;;4.32;1.75;;;;;;;;;;8324345;28;20364;-73
2021/04/14 07:44:00;;;;;;;4.47;1.90;;;;;;;;;;8307105;28;20478;-73
2021/04/14 07:48:15;;;;;;;6.20;4.45;;;;;;;;;;8290854;28;20471;-73
2021/04/14 07:52:28;;;;;;;3.97;2.05;;;;;;;;;;8323522;28;20360;-73
2021/04/14 07:56:51;;;;;;;2.40;1.63;;;;;;;;;;8272446;28;20462;-74
2021/04/14 08:01:09;;;;;;;5.05;2.33;;;;;;;;;;8305991;28;20355;-74
2021/04/14 08:05:34;;;;;;;3.40;1.88;;;;;;;;;;8307879;28;20382;-73
2021/04/14 08:09:52;;;;;;;2.70;1.50;;;;;;;;;;8322638;28;20375;-72
2021/04/14 08:14:15;;;;;;;4.38;1.92;;;;;;;;;;8302843;28;20086;-72
2021/04/14 08:18:34;;;;;;;5.47;2.38;;;;;;;;;;8324299;28;20467;-72
2021/04/14 08:22:41;;;;;;;7.38;2.95;;;;;;;;;;8326121;28;20375;-73
2021/04/14 08:26:53;;;;;;;4.95;2.53;;;;;;;;;;8289401;28;20439;-72
2021/04/14 08:31:08;;;;;;;5.55;2.83;;;;;;;;;;8325056;28;20462;-72
2021/04/14 08:35:31;;;;;;;15.90;7.68;;;;;;;;;;8305516;28;20417;-73
2021/04/14 08:39:49;;;;;;;5.03;3.45;;;;;;;;;;8323886;28;20397;-74
2021/04/14 08:43:53;;;;;;;6.50;4.28;;;;;;;;;;8306717;28;20070;-74
2021/04/14 08:48:22;;;;;;;6.90;3.50;;;;;;;;;;8321944;28;20402;-74
2021/04/14 08:52:28;;;;;;;6.00;3.70;;;;;;;;;;8308678;28;20363;-74
2021/04/14 08:56:35;;;;;;;6.13;4.00;;;;;;;;;;8323709;28;20463;-74
2021/04/14 09:00:40;;;;;;;7.07;4.15;;;;;;;;;;8322926;28;20060;-74
2021/04/14 09:04:47;;;;;;;9.32;3.88;;;;;;;;;;8305031;28;20482;-74
2021/04/14 09:08:53;;;;;;;12.50;7.07;;;;;;;;;;8304959;28;20355;-75
2021/04/14 09:12:58;;;;;;;8.88;5.32;;;;;;;;;;8306095;28;20055;-73
2021/04/14 09:17:13;;;;;;;4.93;3.50;;;;;;;;;;8323528;28;20235;-75
2021/04/14 09:21:24;;;;;;;5.22;3.88;;;;;;;;;;8306386;28;20390;-74
2021/04/14 09:25:52;;;;;;;14.60;7.25;;;;;;;;;;8305052;28;20491;-77
2021/04/14 09:30:14;;;;;;;16.60;6.95;;;;;;;;;;8305964;28;20492;-72
2021/04/14 09:34:42;;;;;;;50.38;22.10;;;;;;;;;;8325844;28;20439;-73
2021/04/14 09:38:49;;;;;;;24.73;10.63;;;;;;;;;;8330091;28;20074;-73
2021/04/14 09:42:53;;;;;;;27.38;11.85;;;;;;;;;;8328951;28;20359;-73
2021/04/14 09:47:29;;;;;;;11.40;6.63;;;;;;;;;;8329017;28;20338;-73
2021/04/14 09:51:37;;;;;;;10.23;5.40;;;;;;;;;;8317014;28;20375;-76
2021/04/14 09:55:57;;;;;;;7.63;4.30;;;;;;;;;;8309113;28;20044;-74
2021/04/14 10:00:03;;;;;;;9.55;4.80;;;;;;;;;;8313323;28;20439;-73
2021/04/14 10:04:22;;;;;;;14.43;7.10;;;;;;;;;;8311721;28;20447;-73
2021/04/14 10:08:27;;;;;;;11.15;5.13;;;;;;;;;;8311540;28;20366;-74
2021/04/14 10:12:32;;;;;;;8.80;5.43;;;;;;;;;;8310340;28;20395;-73
2021/04/14 10:16:36;;;;;;;10.02;4.80;;;;;;;;;;8328323;28;20351;-74
2021/04/14 10:20:40;;;;;;;15.57;10.20;;;;;;;;;;8310847;28;20383;-74
2021/04/14 10:24:46;;;;;;;8.52;5.93;;;;;;;;;;8328791;28;20439;-74
2021/04/14 10:28:51;;;;;;;14.20;7.97;;;;;;;;;;8293187;28;20581;-74
2021/04/14 10:33:10;;;;;;;8.98;5.75;;;;;;;;;;8308891;28;20425;-74
2021/04/14 10:37:24;;;;;;;13.70;6.72;;;;;;;;;;8309298;28;20466;-76
2021/04/14 10:41:32;;;;;;;11.48;6.55;;;;;;;;;;8310340;28;20427;-73
2021/04/14 10:45:37;;;;;;;10.50;6.55;;;;;;;;;;8327310;28;20052;-74
2021/04/14 10:49:42;;;;;;;7.65;4.50;;;;;;;;;;8328191;28;20454;-74
2021/04/14 10:53:48;;;;;;;7.75;4.38;;;;;;;;;;8308195;28;20421;-74
2021/04/14 10:58:05;;;;;;;6.35;4.10;;;;;;;;;;8308893;28;20360;-74
2021/04/14 11:02:18;;;;;;;6.78;3.70;;;;;;;;;;8326442;28;20466;-74
2021/04/14 11:06:23;;;;;;;10.60;4.82;;;;;;;;;;8307902;28;20382;-74
2021/04/14 11:10:35;;;;;;;8.85;4.05;;;;;;;;;;8325240;28;20383;-74
2021/04/14 11:14:43;;;;;;;20.45;7.05;;;;;;;;;;8309417;28;20440;-74
2021/04/14 11:18:49;;;;;;;3.88;2.20;;;;;;;;;;8310768;28;20463;-73
2021/04/14 11:22:56;;;;;;;10.52;3.75;;;;;;;;;;8325455;28;20474;-74
2021/04/14 11:27:01;;;;;;;6.70;2.72;;;;;;;;;;8291818;28;20206;-74
2021/04/14 11:31:05;;;;;;;3.50;1.60;;;;;;;;;;8306940;28;20459;-74
2021/04/14 11:35:15;;;;;;;10.57;3.85;;;;;;;;;;8299816;28;20378;-74
2021/04/14 11:39:22;;;;;;;4.18;2.22;;;;;;;;;;8286691;28;20359;-74
2021/04/14 11:43:37;;;;;;;10.95;4.10;;;;;;;;;;8304999;28;20394;-73
2021/04/14 11:47:40;;;;;;;8.13;1.95;;;;;;;;;;8305178;28;20382;-75
2021/04/14 11:51:46;;;;;;;7.65;2.17;;;;;;;;;;8323428;28;20367;-73
2021/04/14 11:55:52;;;;;;;7.05;2.13;;;;;;;;;;8323665;28;20471;-73
2021/04/14 12:00:26;;;;;;;6.93;2.75;;;;;;;;;;8358651;28;20416;-73
2021/04/14 12:04:32;;;;;;;9.82;2.55;;;;;;;;;;8341278;28;20485;-73
2021/04/14 12:08:40;;;;;;;7.80;1.88;;;;;;;;;;8358477;28;20387;-72
2021/04/14 12:12:45;;;;;;;7.75;2.70;;;;;;;;;;8341054;28;20443;-73
2021/04/14 12:16:49;;;;;;;7.43;2.85;;;;;;;;;;8339310;28;20381;-73
2021/04/14 12:20:53;;;;;;;9.02;3.35;;;;;;;;;;8359969;28;20359;-72
2021/04/14 12:24:58;;;;;;;14.77;3.13;;;;;;;;;;8357658;28;20370;-73
2021/04/14 12:29:02;;;;;;;5.13;2.40;;;;;;;;;;8357524;28;20490;-73
2021/04/14 12:33:07;;;;;;;7.85;3.67;;;;;;;;;;8338118;28;20474;-72
2021/04/14 12:37:10;;;;;;;6.60;2.70;;;;;;;;;;8355655;28;20373;-72
2021/04/14 12:41:22;;;;;;;6.43;3.00;;;;;;;;;;8355482;28;20434;-72
2021/04/14 12:45:50;;;;;;;6.10;2.67;;;;;;;;;;8339862;28;20476;-72
2021/04/14 12:49:55;;;;;;;6.68;3.30;;;;;;;;;;8338684;28;20456;-73
2021/04/14 12:54:27;;;;;;;6.57;2.33;;;;;;;;;;8323917;28;20470;-73
2021/04/14 12:58:40;;;;;;;5.97;2.55;;;;;;;;;;8317688;28;20394;-72
2021/04/14 13:02:56;;;;;;;7.38;2.95;;;;;;;;;;8305070;28;20467;-72
2021/04/14 13:07:33;;;;;;;5.22;2.10;;;;;;;;;;8304908;28;20060;-73
2021/04/14 13:11:51;;;;;;;6.10;2.63;;;;;;;;;;8309386;28;20436;-72
2021/04/14 13:16:23;;;;;;;4.73;2.57;;;;;;;;;;8281925;28;20352;-72
2021/04/14 13:20:28;;;;;;;10.32;4.70;;;;;;;;;;8330574;28;20051;-74
2021/04/14 13:24:41;;;;;;;4.10;2.45;;;;;;;;;;8311739;28;20493;-74
2021/04/14 13:29:04;;;;;;;4.15;2.22;;;;;;;;;;8329925;28;20356;-74
2021/04/14 13:33:17;;;;;;;4.40;2.53;;;;;;;;;;8312920;28;20382;-74
2021/04/14 13:37:30;;;;;;;5.20;2.60;;;;;;;;;;8311777;28;20368;-74
2021/04/14 13:41:43;;;;;;;17.88;6.95;;;;;;;;;;8310103;28;20501;-74
2021/04/14 13:45:59;;;;;;;16.42;6.65;;;;;;;;;;8311604;28;20071;-74
2021/04/14 13:50:21;;;;;;;22.15;8.80;;;;;;;;;;8312421;28;20463;-74
2021/04/14 13:54:26;;;;;;;13.15;6.25;;;;;;;;;;8311639;28;20463;-74
2021/04/14 13:58:44;;;;;;;13.07;5.80;;;;;;;;;;8313652;28;20471;-74
2021/04/14 14:02:57;;;;;;;4.80;2.58;;;;;;;;;;8327906;28;20055;-74
2021/04/14 14:07:28;;;;;;;6.00;2.55;;;;;;;;;;8326343;28;20348;-74
2021/04/14 14:11:41;;;;;;;4.50;2.63;;;;;;;;;;8326292;28;20386;-74
2021/04/14 14:16:02;;;;;;;4.57;2.28;;;;;;;;;;8326397;28;20047;-73
2021/04/14 14:20:07;;;;;;;5.65;2.78;;;;;;;;;;8328413;28;20489;-73
2021/04/14 14:24:13;;;;;;;7.15;2.50;;;;;;;;;;8326406;28;20360;-73
2021/04/14 14:28:17;;;;;;;9.63;3.83;;;;;;;;;;8326057;28;20372;-73
2021/04/14 14:32:25;;;;;;;9.60;4.30;;;;;;;;;;8325606;28;20371;-73
2021/04/14 14:36:52;;;;;;;7.57;3.03;;;;;;;;;;8327346;28;20078;-73
2021/04/14 14:40:59;;;;;;;7.10;3.95;;;;;;;;;;8325392;28;20364;-73
2021/04/14 14:45:15;;;;;;;10.20;3.60;;;;;;;;;;8324563;28;20052;-74
2021/04/14 14:49:34;;;;;;;13.10;5.93;;;;;;;;;;8323830;28;20463;-73
2021/04/14 14:53:45;;;;;;;8.45;4.25;;;;;;;;;;8325421;28;20459;-74
2021/04/14 14:57:49;;;;;;;7.20;3.30;;;;;;;;;;8324688;28;20459;-73
2021/04/14 15:01:54;;;;;;;8.52;4.45;;;;;;;;;;8308415;28;20386;-72
2021/04/14 15:05:58;;;;;;;6.13;2.97;;;;;;;;;;8328143;28;20398;-74
2021/04/14 15:10:08;;;;;;;5.50;3.35;;;;;;;;;;8308640;28;20074;-74
2021/04/14 15:14:13;;;;;;;6.80;3.45;;;;;;;;;;8307047;28;20451;-75
2021/04/14 15:18:18;;;;;;;19.90;5.28;;;;;;;;;;8325300;28;20367;-72
2021/04/14 15:22:25;;;;;;;9.80;3.75;;;;;;;;;;8309158;28;20632;-72
2021/04/14 15:26:29;;;;;;;15.00;5.00;;;;;;;;;;8306732;28;20891;-72
2021/04/14 15:30:37;;;;;;;26.58;7.85;;;;;;;;;;8307640;28;20439;-72
2021/04/14 15:34:41;;;;;;;9.05;3.45;;;;;;;;;;8326062;28;20064;-72
2021/04/14 15:38:53;;;;;;;12.40;4.47;;;;;;;;;;8326985;28;20074;-72
2021/04/14 15:43:01;;;;;;;13.40;6.43;;;;;;;;;;8308179;28;20356;-72
2021/04/14 15:47:07;;;;;;;14.65;5.63;;;;;;;;;;8324705;28;20048;-72
2021/04/14 15:51:14;;;;;;;18.13;6.75;;;;;;;;;;8306293;28;20344;-72
2021/04/14 15:55:27;;;;;;;13.02;5.78;;;;;;;;;;8326624;28;20051;-71
2021/04/14 15:59:32;;;;;;;14.38;7.00;;;;;;;;;;8308286;28;20064;-72
2021/04/14 16:03:36;;;;;;;18.00;6.32;;;;;;;;;;8323852;28;20074;-71
2021/04/14 16:07:44;;;;;;;10.70;5.22;;;;;;;;;;8326390;28;20379;-72
2021/04/14 16:11:47;;;;;;;5.88;3.50;;;;;;;;;;8323885;28;20074;-72
2021/04/14 16:15:51;;;;;;;9.23;4.78;;;;;;;;;;8325251;28;20474;-72
2021/04/14 16:19:55;;;;;;;6.90;4.03;;;;;;;;;;8323298;28;20355;-71
2021/04/14 16:24:02;;;;;;;14.32;5.97;;;;;;;;;;8323062;28;20483;-71
2021/04/14 16:28:11;;;;;;;17.95;7.72;;;;;;;;;;8324017;28;20681;-72
2021/04/14 16:32:14;;;;;;;39.45;13.77;;;;;;;;;;8324468;28;20378;-72
2021/04/14 16:36:20;;;;;;;16.02;8.23;;;;;;;;;;8305454;28;20486;-72
2021/04/14 16:40:26;;;;;;;8.68;4.93;;;;;;;;;;8288976;28;20459;-73
2021/04/14 16:44:30;;;;;;;26.92;10.77;;;;;;;;;;8305148;28;20455;-71
2021/04/14 16:48:35;;;;;;;43.05;15.80;;;;;;;;;;8322740;28;20489;-74
2021/04/14 16:52:40;;;;;;;22.05;8.93;;;;;;;;;;8323124;28;20531;-71
2021/04/14 16:56:44;;;;;;;10.48;4.78;;;;;;;;;;8324157;28;20060;-71
2021/04/14 17:00:48;;;;;;;11.02;5.07;;;;;;;;;;8305579;28;20461;-72
2021/04/14 17:04:53;;;;;;;15.88;8.90;;;;;;;;;;8322978;28;20078;-71
2021/04/14 17:08:59;;;;;;;19.88;9.15;;;;;;;;;;8304672;28;20457;-71
2021/04/14 17:13:08;;;;;;;19.20;10.07;;;;;;;;;;8305116;28;20390;-71
2021/04/14 17:17:12;;;;;;;13.02;7.80;;;;;;;;;;8322779;28;20429;-72
2021/04/14 17:21:17;;;;;;;14.05;6.13;;;;;;;;;;8304568;28;20409;-71
2021/04/14 17:25:22;;;;;;;17.52;8.00;;;;;;;;;;8306373;28;20075;-71
2021/04/14 17:29:27;;;;;;;16.13;8.05;;;;;;;;;;8324363;28;20342;-71
2021/04/14 17:33:32;;;;;;;22.35;11.18;;;;;;;;;;8322865;28;20364;-71
2021/04/14 17:37:39;;;;;;;21.50;11.68;;;;;;;;;;8313754;28;20456;-72
2021/04/14 17:41:47;;;;;;;25.60;13.45;;;;;;;;;;8288535;28;20460;-73
2021/04/14 17:45:52;;;;;;;;;;;;;;;;;;8289867;28;20056;-72
2021/04/14 17:49:56;;;;;;;24.63;12.07;;;;;;;;;;8287657;28;20346;-72
2021/04/14 17:54:03;;;;;;;37.22;14.30;;;;;;;;;;8272797;28;20116;-71
2021/04/14 17:58:11;;;;;;;30.80;13.77;;;;;;;;;;8295267;28;20475;-72
2021/04/14 18:02:16;;;;;;;23.92;13.55;;;;;;;;;;8277130;28;20478;-72
2021/04/14 18:06:24;;;;;;;100.75;36.80;;;;;;;;;;8278741;28;20489;-72
2021/04/14 18:10:31;;;;;;;22.27;11.63;;;;;;;;;;8277216;28;20380;-72
2021/04/14 18:14:35;;;;;;;35.35;16.40;;;;;;;;;;8293605;28;20456;-72
2021/04/14 18:18:42;;;;;;;13.68;7.15;;;;;;;;;;8294001;28;20486;-72
2021/04/14 18:22:47;;;;;;;22.17;10.00;;;;;;;;;;8278209;28;20427;-72
2021/04/14 18:26:57;;;;;;;15.07;6.95;;;;;;;;;;8294396;28;20356;-72
2021/04/14 18:31:03;;;;;;;49.75;19.52;;;;;;;;;;8260357;28;20391;-73
2021/04/14 18:35:09;;;;;;;62.92;28.15;;;;;;;;;;8294529;28;20483;-73
2021/04/14 18:39:20;;;;;;;34.08;17.58;;;;;;;;;;8296131;28;20048;-73
2021/04/14 18:43:25;;;;;;;23.23;12.65;;;;;;;;;;8276972;28;20475;-73
2021/04/14 18:47:32;;;;;;;32.97;15.60;;;;;;;;;;8275700;28;20473;-73
2021/04/14 18:51:39;;;;;;;39.40;19.33;;;;;;;;;;8292800;28;20044;-73
2021/04/14 18:55:44;;;;;;;20.45;9.77;;;;;;;;;;8293708;28;20378;-74
2021/04/14 18:59:48;;;;;;;26.67;11.52;;;;;;;;;;8288779;28;20448;-72
2021/04/14 19:03:53;;;;;;;42.22;14.88;;;;;;;;;;8293100;28;20079;-73
2021/04/14 19:07:58;;;;;;;31.90;12.90;;;;;;;;;;8293729;28;20410;-73
2021/04/14 19:12:06;;;;;;;28.55;10.77;;;;;;;;;;8291694;28;20460;-72
2021/04/14 19:16:11;;;;;;;26.10;10.27;;;;;;;;;;8293261;28;20498;-72
2021/04/14 19:20:48;;;;;;;25.98;9.63;;;;;;;;;;8291136;28;20459;-72
2021/04/14 19:24:51;;;;;;;23.65;9.50;;;;;;;;;;8291249;28;20145;-73
2021/04/14 19:28:56;;;;;;;23.73;8.20;;;;;;;;;;8292293;28;20375;-73
2021/04/14 19:33:00;;;;;;;27.85;9.23;;;;;;;;;;8292347;28;20426;-72
2021/04/14 19:37:06;;;;;;;33.72;10.43;;;;;;;;;;8292170;28;20406;-72
2021/04/14 19:41:13;;;;;;;22.17;7.95;;;;;;;;;;8289791;28;20458;-72
2021/04/14 19:45:21;;;;;;;30.00;11.77;;;;;;;;;;8289755;28;20356;-72
2021/04/14 19:49:28;;;;;;;22.02;11.02;;;;;;;;;;8289352;28;20417;-73
2021/04/14 19:53:42;;;;;;;18.65;8.45;;;;;;;;;;8290339;28;20466;-72
2021/04/14 19:57:50;;;;;;;17.70;8.00;;;;;;;;;;8291081;28;20821;-72
2021/04/14 20:01:57;;;;;;;16.10;7.03;;;;;;;;;;8272112;28;20375;-72
2021/04/14 20:06:02;;;;;;;17.00;7.40;;;;;;;;;;8274892;28;20056;-72
2021/04/14 20:10:14;;;;;;;;;;;;;;;;;;8290688;28;20354;-72
2021/04/14 20:14:21;;;;;;;18.80;7.50;;;;;;;;;;8257689;28;20328;-72
2021/04/14 20:18:37;;;;;;;15.90;6.97;;;;;;;;;;8241822;28;20399;-74
2021/04/14 20:22:46;;;;;;;17.15;7.68;;;;;;;;;;8272582;28;20355;-74
2021/04/14 20:26:55;;;;;;;18.83;6.40;;;;;;;;;;8290129;28;20371;-74
2021/04/14 20:31:01;;;;;;;22.83;9.27;;;;;;;;;;8271253;28;20414;-73
2021/04/14 20:35:10;;;;;;;70.20;23.38;;;;;;;;;;8289612;28;20387;-74
2021/04/14 20:39:26;;;;;;;154.55;38.25;;;;;;;;;;8290389;28;20367;-74
2021/04/14 20:43:31;;;;;;;54.38;19.58;;;;;;;;;;8273394;28;20460;-74
2021/04/14 20:47:36;;;;;;;22.65;10.45;;;;;;;;;;8271724;28;20479;-74
2021/04/14 20:51:48;;;;;;;26.67;10.00;;;;;;;;;;8272069;28;20379;-74
2021/04/14 20:55:54;;;;;;;32.83;13.27;;;;;;;;;;8273883;28;20057;-75
2021/04/14 20:59:59;;;;;;;44.53;15.07;;;;;;;;;;8284113;28;20485;-74
2021/04/14 21:04:04;;;;;;;34.45;11.13;;;;;;;;;;8291331;28;20402;-74
2021/04/14 21:08:09;;;;;;;32.65;10.70;;;;;;;;;;8289768;28;20451;-75
2021/04/14 21:12:14;;;;;;;30.90;9.77;;;;;;;;;;8290007;28;20483;-75
2021/04/14 21:16:19;;;;;;;21.20;8.15;;;;;;;;;;8289836;28;20899;-75
2021/04/14 21:20:29;;;;;;;18.90;6.78;;;;;;;;;;8291423;28;20398;-75
2021/04/14 21:24:33;;;;;;;16.23;7.32;;;;;;;;;;8288489;28;20376;-75
2021/04/14 21:28:38;;;;;;;11.25;6.88;;;;;;;;;;8290562;28;20392;-74
2021/04/14 21:32:43;;;;;;;14.13;5.45;;;;;;;;;;8278535;28;20459;-76
2021/04/14 21:36:47;;;;;;;9.35;4.75;;;;;;;;;;8294053;28;20345;-75
2021/04/14 21:40:51;;;;;;;12.45;5.10;;;;;;;;;;8298012;28;20056;-75
2021/04/14 21:44:56;;;;;;;11.70;6.15;;;;;;;;;;8297702;28;20379;-75
2021/04/14 21:49:01;;;;;;;11.65;5.65;;;;;;;;;;8295217;28;20060;-75
2021/04/14 21:53:06;;;;;;;14.27;5.60;;;;;;;;;;8295381;28;20049;-75
2021/04/14 21:57:10;;;;;;;28.02;9.57;;;;;;;;;;8261576;28;20463;-76
2021/04/14 22:01:15;;;;;;;15.82;6.55;;;;;;;;;;8294311;28;20382;-75
2021/04/14 22:05:19;;;;;;;6.95;3.70;;;;;;;;;;8294513;28;20060;-74
2021/04/14 22:09:24;;;;;;;8.27;3.80;;;;;;;;;;8277542;28;20509;-75
2021/04/14 22:13:29;;;;;;;8.55;4.22;;;;;;;;;;8295071;28;20472;-75
2021/04/14 22:17:34;;;;;;;7.13;3.63;;;;;;;;;;8277982;28;20463;-75
2021/04/14 22:21:39;;;;;;;7.90;3.47;;;;;;;;;;8277951;28;20486;-75
2021/04/14 22:25:46;;;;;;;6.18;3.03;;;;;;;;;;8294493;28;20083;-75
2021/04/14 22:29:50;;;;;;;6.35;3.65;;;;;;;;;;8277158;28;20414;-76
2021/04/14 22:33:55;;;;;;;4.50;2.83;;;;;;;;;;8276186;28;20501;-74
2021/04/14 22:38:03;;;;;;;5.90;2.60;;;;;;;;;;8276595;28;20390;-75
2021/04/14 22:42:08;;;;;;;7.57;2.50;;;;;;;;;;8275683;28;20475;-76
2021/04/14 22:46:14;;;;;;;5.35;2.50;;;;;;;;;;8293790;28;20078;-75
2021/04/14 22:50:23;;;;;;;10.23;3.08;;;;;;;;;;8260187;28;20045;-75
2021/04/14 22:54:28;;;;;;;;;;;;;;;;;;8276697;28;20403;-75
2021/04/14 22:58:32;;;;;;;5.90;2.88;;;;;;;;;;8293891;28;19920;-76
2021/04/14 23:02:35;;;;;;;6.18;3.13;;;;;;;;;;8276593;28;20056;-75
2021/04/14 23:06:48;;;;;;;8.40;3.47;;;;;;;;;;8292712;28;20379;-75
2021/04/14 23:10:54;;;;;;;16.50;4.68;;;;;;;;;;8293349;28;20053;-77
2021/04/14 23:14:58;;;;;;;7.70;4.13;;;;;;;;;;8292937;28;20476;-75
2021/04/14 23:19:03;;;;;;;14.52;5.22;;;;;;;;;;8292383;28;20468;-74
2021/04/14 23:23:08;;;;;;;7.25;3.47;;;;;;;;;;8274962;28;20471;-75
2021/04/14 23:27:11;;;;;;;6.10;3.15;;;;;;;;;;8275865;28;20115;-75
2021/04/14 23:31:16;;;;;;;6.10;3.90;;;;;;;;;;8275614;28;20356;-74
2021/04/14 23:35:22;;;;;;;9.55;5.28;;;;;;;;;;8291619;28;20464;-75
2021/04/14 23:39:26;;;;;;;12.30;4.65;;;;;;;;;;8273841;28;20446;-75
2021/04/14 23:43:32;;;;;;;12.90;5.22;;;;;;;;;;8291590;28;20452;-75
2021/04/14 23:47:37;;;;;;;8.55;4.13;;;;;;;;;;8274292;28;20514;-74
2021/04/14 23:51:42;;;;;;;8.07;4.32;;;;;;;;;;8256736;28;20452;-75
2021/04/14 23:55:47;;;;;;;6.40;4.07;;;;;;;;;;8274883;28;20367;-75
2021/04/14 23:59:52;;;;;;;9.02;4.80;;;;;;;;;;8292429;28;20525;-75
